sensor_id;sensor_type;location;lat;lon;timestamp;temperature;humidity
47861;HTU21D;33620;52.340;5.984;2023-11-19T00:00:53;12.86;102.81
47861;HTU21D;33620;52.340;5.984;2023-11-19T00:03:18;12.87;102.67
47861;HTU21D;33620;52.340;5.984;2023-11-19T00:05:44;12.90;102.54
47861;HTU21D;33620;52.340;5.984;2023-11-19T00:08:13;12.88;101.99
47861;HTU21D;33620;52.340;5.984;2023-11-19T00:10:38;12.91;101.86
47861;HTU21D;33620;52.340;5.984;2023-11-19T00:13:03;12.96;101.78
47861;HTU21D;33620;52.340;5.984;2023-11-19T00:15:29;13.01;101.41
47861;HTU21D;33620;52.340;5.984;2023-11-19T00:17:55;13.04;101.10
47861;HTU21D;33620;52.340;5.984;2023-11-19T00:20:20;13.06;100.97
47861;HTU21D;33620;52.340;5.984;2023-11-19T00:22:49;13.07;100.79
47861;HTU21D;33620;52.340;5.984;2023-11-19T00:25:18;13.03;100.64
47861;HTU21D;33620;52.340;5.984;2023-11-19T00:27:43;13.06;100.76
47861;HTU21D;33620;52.340;5.984;2023-11-19T00:30:12;13.06;100.55
47861;HTU21D;33620;52.340;5.984;2023-11-19T00:32:38;13.07;100.66
47861;HTU21D;33620;52.340;5.984;2023-11-19T00:35:05;13.06;100.49
47861;HTU21D;33620;52.340;5.984;2023-11-19T00:37:31;13.08;100.43
47861;HTU21D;33620;52.340;5.984;2023-11-19T00:39:56;13.07;100.35
47861;HTU21D;33620;52.340;5.984;2023-11-19T00:42:23;13.09;100.39
47861;HTU21D;33620;52.340;5.984;2023-11-19T00:44:50;13.10;100.19
47861;HTU21D;33620;52.340;5.984;2023-11-19T00:47:15;13.11;100.16
47861;HTU21D;33620;52.340;5.984;2023-11-19T00:49:40;13.10;100.00
47861;HTU21D;33620;52.340;5.984;2023-11-19T00:52:06;13.10;100.09
47861;HTU21D;33620;52.340;5.984;2023-11-19T00:54:32;13.09;99.92
47861;HTU21D;33620;52.340;5.984;2023-11-19T00:56:57;13.02;99.94
47861;HTU21D;33620;52.340;5.984;2023-11-19T00:59:22;13.05;99.76
47861;HTU21D;33620;52.340;5.984;2023-11-19T01:01:48;13.03;99.80
47861;HTU21D;33620;52.340;5.984;2023-11-19T01:04:14;13.02;100.12
47861;HTU21D;33620;52.340;5.984;2023-11-19T01:06:40;13.04;99.84
47861;HTU21D;33620;52.340;5.984;2023-11-19T01:09:05;13.04;99.79
47861;HTU21D;33620;52.340;5.984;2023-11-19T01:11:31;13.04;99.92
47861;HTU21D;33620;52.340;5.984;2023-11-19T01:13:56;13.05;99.97
47861;HTU21D;33620;52.340;5.984;2023-11-19T01:16:21;13.06;99.80
47861;HTU21D;33620;52.340;5.984;2023-11-19T01:18:48;13.07;99.71
47861;HTU21D;33620;52.340;5.984;2023-11-19T01:21:14;13.05;99.58
47861;HTU21D;33620;52.340;5.984;2023-11-19T01:23:40;13.03;99.51
47861;HTU21D;33620;52.340;5.984;2023-11-19T01:26:08;13.07;99.35
47861;HTU21D;33620;52.340;5.984;2023-11-19T01:28:35;13.09;99.00
47861;HTU21D;33620;52.340;5.984;2023-11-19T01:31:01;13.08;99.13
47861;HTU21D;33620;52.340;5.984;2023-11-19T01:33:26;13.09;99.15
47861;HTU21D;33620;52.340;5.984;2023-11-19T01:35:53;13.08;98.83
47861;HTU21D;33620;52.340;5.984;2023-11-19T01:38:18;13.09;98.63
47861;HTU21D;33620;52.340;5.984;2023-11-19T01:40:44;13.10;98.48
47861;HTU21D;33620;52.340;5.984;2023-11-19T01:43:10;13.06;98.40
47861;HTU21D;33620;52.340;5.984;2023-11-19T01:45:37;13.04;98.22
47861;HTU21D;33620;52.340;5.984;2023-11-19T01:48:03;13.06;97.97
47861;HTU21D;33620;52.340;5.984;2023-11-19T01:50:30;13.07;97.78
47861;HTU21D;33620;52.340;5.984;2023-11-19T01:52:56;13.06;97.84
47861;HTU21D;33620;52.340;5.984;2023-11-19T01:55:27;13.04;97.71
47861;HTU21D;33620;52.340;5.984;2023-11-19T01:57:55;13.00;97.97
47861;HTU21D;33620;52.340;5.984;2023-11-19T02:00:24;12.97;98.00
47861;HTU21D;33620;52.340;5.984;2023-11-19T02:02:50;12.97;97.87
47861;HTU21D;33620;52.340;5.984;2023-11-19T02:05:17;13.03;97.63
47861;HTU21D;33620;52.340;5.984;2023-11-19T02:07:42;13.01;97.71
47861;HTU21D;33620;52.340;5.984;2023-11-19T02:10:08;12.99;97.51
47861;HTU21D;33620;52.340;5.984;2023-11-19T02:12:39;12.97;97.67
47861;HTU21D;33620;52.340;5.984;2023-11-19T02:15:08;13.00;97.56
47861;HTU21D;33620;52.340;5.984;2023-11-19T02:17:34;12.99;97.58
47861;HTU21D;33620;52.340;5.984;2023-11-19T02:20:00;13.01;97.74
47861;HTU21D;33620;52.340;5.984;2023-11-19T02:22:25;13.01;97.60
47861;HTU21D;33620;52.340;5.984;2023-11-19T02:24:54;13.01;97.63
47861;HTU21D;33620;52.340;5.984;2023-11-19T02:27:43;13.03;97.49
47861;HTU21D;33620;52.340;5.984;2023-11-19T02:30:11;13.01;97.23
47861;HTU21D;33620;52.340;5.984;2023-11-19T02:32:36;13.06;97.12
47861;HTU21D;33620;52.340;5.984;2023-11-19T02:35:04;13.06;96.84
47861;HTU21D;33620;52.340;5.984;2023-11-19T02:37:29;13.08;96.41
47861;HTU21D;33620;52.340;5.984;2023-11-19T02:39:55;13.11;96.01
47861;HTU21D;33620;52.340;5.984;2023-11-19T02:42:20;13.16;95.81
47861;HTU21D;33620;52.340;5.984;2023-11-19T02:44:45;13.12;95.68
47861;HTU21D;33620;52.340;5.984;2023-11-19T02:47:11;13.07;95.75
47861;HTU21D;33620;52.340;5.984;2023-11-19T02:49:37;13.07;95.58
47861;HTU21D;33620;52.340;5.984;2023-11-19T02:52:03;13.05;95.46
47861;HTU21D;33620;52.340;5.984;2023-11-19T02:54:31;13.01;95.49
47861;HTU21D;33620;52.340;5.984;2023-11-19T02:57:00;13.00;95.28
47861;HTU21D;33620;52.340;5.984;2023-11-19T02:59:27;12.93;95.20
47861;HTU21D;33620;52.340;5.984;2023-11-19T03:01:53;12.93;95.24
47861;HTU21D;33620;52.340;5.984;2023-11-19T03:04:19;12.91;95.31
47861;HTU21D;33620;52.340;5.984;2023-11-19T03:06:45;12.90;95.41
47861;HTU21D;33620;52.340;5.984;2023-11-19T03:09:11;12.88;95.24
47861;HTU21D;33620;52.340;5.984;2023-11-19T03:11:37;12.88;95.16
47861;HTU21D;33620;52.340;5.984;2023-11-19T03:14:02;12.84;95.36
47861;HTU21D;33620;52.340;5.984;2023-11-19T03:16:31;12.86;95.42
47861;HTU21D;33620;52.340;5.984;2023-11-19T03:18:57;12.88;95.36
47861;HTU21D;33620;52.340;5.984;2023-11-19T03:21:29;12.84;95.15
47861;HTU21D;33620;52.340;5.984;2023-11-19T03:23:56;12.89;95.12
47861;HTU21D;33620;52.340;5.984;2023-11-19T03:26:22;12.88;94.82
47861;HTU21D;33620;52.340;5.984;2023-11-19T03:28:47;12.84;94.72
47861;HTU21D;33620;52.340;5.984;2023-11-19T03:31:12;12.85;94.30
47861;HTU21D;33620;52.340;5.984;2023-11-19T03:33:39;12.79;94.58
47861;HTU21D;33620;52.340;5.984;2023-11-19T03:36:05;12.82;94.47
47861;HTU21D;33620;52.340;5.984;2023-11-19T03:38:30;12.75;94.42
47861;HTU21D;33620;52.340;5.984;2023-11-19T03:40:56;12.76;94.14
47861;HTU21D;33620;52.340;5.984;2023-11-19T03:43:21;12.72;93.90
47861;HTU21D;33620;52.340;5.984;2023-11-19T03:45:46;12.70;93.62
47861;HTU21D;33620;52.340;5.984;2023-11-19T03:48:12;12.67;93.66
47861;HTU21D;33620;52.340;5.984;2023-11-19T03:50:37;12.65;93.82
47861;HTU21D;33620;52.340;5.984;2023-11-19T03:53:02;12.61;93.80
47861;HTU21D;33620;52.340;5.984;2023-11-19T03:55:29;12.61;93.82
47861;HTU21D;33620;52.340;5.984;2023-11-19T03:57:55;12.60;93.83
47861;HTU21D;33620;52.340;5.984;2023-11-19T04:00:20;12.52;94.00
47861;HTU21D;33620;52.340;5.984;2023-11-19T04:02:46;12.48;94.03
47861;HTU21D;33620;52.340;5.984;2023-11-19T04:05:12;12.46;94.22
47861;HTU21D;33620;52.340;5.984;2023-11-19T04:07:37;12.43;94.30
47861;HTU21D;33620;52.340;5.984;2023-11-19T04:10:03;12.40;94.35
47861;HTU21D;33620;52.340;5.984;2023-11-19T04:12:29;12.33;94.22
47861;HTU21D;33620;52.340;5.984;2023-11-19T04:14:54;12.34;94.13
47861;HTU21D;33620;52.340;5.984;2023-11-19T04:17:20;12.33;94.16
47861;HTU21D;33620;52.340;5.984;2023-11-19T04:19:45;12.34;93.95
47861;HTU21D;33620;52.340;5.984;2023-11-19T04:22:10;12.31;94.11
47861;HTU21D;33620;52.340;5.984;2023-11-19T04:24:36;12.27;94.23
47861;HTU21D;33620;52.340;5.984;2023-11-19T04:27:02;12.19;94.34
47861;HTU21D;33620;52.340;5.984;2023-11-19T04:29:30;12.17;94.35
47861;HTU21D;33620;52.340;5.984;2023-11-19T04:31:55;12.15;94.36
47861;HTU21D;33620;52.340;5.984;2023-11-19T04:34:21;12.16;94.50
47861;HTU21D;33620;52.340;5.984;2023-11-19T04:36:46;12.14;94.58
47861;HTU21D;33620;52.340;5.984;2023-11-19T04:39:12;12.17;94.51
47861;HTU21D;33620;52.340;5.984;2023-11-19T04:41:49;12.16;94.11
47861;HTU21D;33620;52.340;5.984;2023-11-19T04:44:15;12.15;93.82
47861;HTU21D;33620;52.340;5.984;2023-11-19T04:46:41;12.19;93.81
47861;HTU21D;33620;52.340;5.984;2023-11-19T04:49:08;12.19;93.73
47861;HTU21D;33620;52.340;5.984;2023-11-19T04:51:40;12.19;93.59
47861;HTU21D;33620;52.340;5.984;2023-11-19T04:54:07;12.22;93.51
47861;HTU21D;33620;52.340;5.984;2023-11-19T04:56:34;12.18;93.60
47861;HTU21D;33620;52.340;5.984;2023-11-19T04:58:59;12.21;93.49
47861;HTU21D;33620;52.340;5.984;2023-11-19T05:01:24;12.20;93.52
47861;HTU21D;33620;52.340;5.984;2023-11-19T05:03:50;12.16;93.66
47861;HTU21D;33620;52.340;5.984;2023-11-19T05:06:16;12.19;93.46
47861;HTU21D;33620;52.340;5.984;2023-11-19T05:08:41;12.18;93.43
47861;HTU21D;33620;52.340;5.984;2023-11-19T05:11:06;12.17;93.31
47861;HTU21D;33620;52.340;5.984;2023-11-19T05:13:32;12.16;93.31
47861;HTU21D;33620;52.340;5.984;2023-11-19T05:15:57;12.14;93.04
47861;HTU21D;33620;52.340;5.984;2023-11-19T05:18:22;12.18;92.98
47861;HTU21D;33620;52.340;5.984;2023-11-19T05:20:48;12.14;92.79
47861;HTU21D;33620;52.340;5.984;2023-11-19T05:23:14;12.15;92.94
47861;HTU21D;33620;52.340;5.984;2023-11-19T05:25:39;12.13;92.95
47861;HTU21D;33620;52.340;5.984;2023-11-19T05:28:04;12.11;93.01
47861;HTU21D;33620;52.340;5.984;2023-11-19T05:30:30;12.06;92.95
47861;HTU21D;33620;52.340;5.984;2023-11-19T05:32:55;12.03;92.92
47861;HTU21D;33620;52.340;5.984;2023-11-19T05:35:21;12.06;92.82
47861;HTU21D;33620;52.340;5.984;2023-11-19T05:37:46;12.02;93.06
47861;HTU21D;33620;52.340;5.984;2023-11-19T05:40:11;12.01;92.97
47861;HTU21D;33620;52.340;5.984;2023-11-19T05:42:40;12.01;92.97
47861;HTU21D;33620;52.340;5.984;2023-11-19T05:45:07;12.00;93.08
47861;HTU21D;33620;52.340;5.984;2023-11-19T05:47:33;11.94;93.02
47861;HTU21D;33620;52.340;5.984;2023-11-19T05:49:58;11.99;92.85
47861;HTU21D;33620;52.340;5.984;2023-11-19T05:52:23;11.98;92.91
47861;HTU21D;33620;52.340;5.984;2023-11-19T05:54:49;11.97;92.87
47861;HTU21D;33620;52.340;5.984;2023-11-19T05:57:17;11.97;92.85
47861;HTU21D;33620;52.340;5.984;2023-11-19T05:59:47;12.00;92.90
47861;HTU21D;33620;52.340;5.984;2023-11-19T06:02:13;12.03;92.86
47861;HTU21D;33620;52.340;5.984;2023-11-19T06:04:39;11.99;92.77
47861;HTU21D;33620;52.340;5.984;2023-11-19T06:07:04;11.99;92.66
47861;HTU21D;33620;52.340;5.984;2023-11-19T06:09:30;12.00;92.65
47861;HTU21D;33620;52.340;5.984;2023-11-19T06:11:59;12.01;92.57
47861;HTU21D;33620;52.340;5.984;2023-11-19T06:14:27;11.99;92.34
47861;HTU21D;33620;52.340;5.984;2023-11-19T06:16:52;11.98;92.11
47861;HTU21D;33620;52.340;5.984;2023-11-19T06:19:17;12.01;92.02
47861;HTU21D;33620;52.340;5.984;2023-11-19T06:21:43;11.99;92.05
47861;HTU21D;33620;52.340;5.984;2023-11-19T06:24:08;11.99;92.09
47861;HTU21D;33620;52.340;5.984;2023-11-19T06:26:34;11.92;91.92
47861;HTU21D;33620;52.340;5.984;2023-11-19T06:28:59;11.93;91.92
47861;HTU21D;33620;52.340;5.984;2023-11-19T06:31:25;11.90;91.86
47861;HTU21D;33620;52.340;5.984;2023-11-19T06:33:50;11.90;92.00
47861;HTU21D;33620;52.340;5.984;2023-11-19T06:36:16;11.83;91.75
47861;HTU21D;33620;52.340;5.984;2023-11-19T06:38:42;11.81;91.77
47861;HTU21D;33620;52.340;5.984;2023-11-19T06:41:08;11.78;91.72
47861;HTU21D;33620;52.340;5.984;2023-11-19T06:43:34;11.77;91.82
47861;HTU21D;33620;52.340;5.984;2023-11-19T06:46:00;11.76;91.86
47861;HTU21D;33620;52.340;5.984;2023-11-19T06:48:25;11.77;91.72
47861;HTU21D;33620;52.340;5.984;2023-11-19T06:50:50;11.73;91.94
47861;HTU21D;33620;52.340;5.984;2023-11-19T06:53:16;11.76;91.93
47861;HTU21D;33620;52.340;5.984;2023-11-19T06:55:41;11.71;92.03
47861;HTU21D;33620;52.340;5.984;2023-11-19T06:58:07;11.68;92.02
47861;HTU21D;33620;52.340;5.984;2023-11-19T07:00:32;11.67;91.96
47861;HTU21D;33620;52.340;5.984;2023-11-19T07:02:59;11.66;92.08
47861;HTU21D;33620;52.340;5.984;2023-11-19T07:05:24;11.62;92.15
47861;HTU21D;33620;52.340;5.984;2023-11-19T07:07:50;11.58;92.16
47861;HTU21D;33620;52.340;5.984;2023-11-19T07:10:15;11.56;92.21
47861;HTU21D;33620;52.340;5.984;2023-11-19T07:12:41;11.56;92.38
47861;HTU21D;33620;52.340;5.984;2023-11-19T07:15:07;11.60;92.34
47861;HTU21D;33620;52.340;5.984;2023-11-19T07:17:34;11.60;92.21
47861;HTU21D;33620;52.340;5.984;2023-11-19T07:20:00;11.60;92.24
47861;HTU21D;33620;52.340;5.984;2023-11-19T07:22:26;11.60;92.30
47861;HTU21D;33620;52.340;5.984;2023-11-19T07:24:51;11.62;92.13
47861;HTU21D;33620;52.340;5.984;2023-11-19T07:27:18;11.67;92.13
47861;HTU21D;33620;52.340;5.984;2023-11-19T07:29:44;11.63;92.24
47861;HTU21D;33620;52.340;5.984;2023-11-19T07:32:10;11.61;92.25
47861;HTU21D;33620;52.340;5.984;2023-11-19T07:34:35;11.60;92.30
47861;HTU21D;33620;52.340;5.984;2023-11-19T07:37:01;11.56;92.12
47861;HTU21D;33620;52.340;5.984;2023-11-19T07:39:28;11.63;92.18
47861;HTU21D;33620;52.340;5.984;2023-11-19T07:41:53;11.64;91.96
47861;HTU21D;33620;52.340;5.984;2023-11-19T07:44:19;11.64;91.69
47861;HTU21D;33620;52.340;5.984;2023-11-19T07:46:45;11.71;91.55
47861;HTU21D;33620;52.340;5.984;2023-11-19T07:49:10;11.73;91.35
47861;HTU21D;33620;52.340;5.984;2023-11-19T07:51:36;11.77;91.45
47861;HTU21D;33620;52.340;5.984;2023-11-19T07:54:01;11.78;91.25
47861;HTU21D;33620;52.340;5.984;2023-11-19T07:56:27;11.77;91.36
47861;HTU21D;33620;52.340;5.984;2023-11-19T07:58:52;11.79;91.14
47861;HTU21D;33620;52.340;5.984;2023-11-19T08:01:18;11.82;90.89
47861;HTU21D;33620;52.340;5.984;2023-11-19T08:03:43;11.82;91.00
47861;HTU21D;33620;52.340;5.984;2023-11-19T08:06:09;11.85;90.98
47861;HTU21D;33620;52.340;5.984;2023-11-19T08:08:34;11.89;91.08
47861;HTU21D;33620;52.340;5.984;2023-11-19T08:11:00;11.86;90.95
47861;HTU21D;33620;52.340;5.984;2023-11-19T08:13:25;11.88;91.12
47861;HTU21D;33620;52.340;5.984;2023-11-19T08:15:51;11.84;90.92
47861;HTU21D;33620;52.340;5.984;2023-11-19T08:18:16;11.84;91.06
47861;HTU21D;33620;52.340;5.984;2023-11-19T08:20:43;11.87;90.97
47861;HTU21D;33620;52.340;5.984;2023-11-19T08:23:10;11.83;90.80
47861;HTU21D;33620;52.340;5.984;2023-11-19T08:25:35;11.85;90.73
47861;HTU21D;33620;52.340;5.984;2023-11-19T08:28:00;11.87;90.57
47861;HTU21D;33620;52.340;5.984;2023-11-19T08:30:26;11.89;90.60
47861;HTU21D;33620;52.340;5.984;2023-11-19T08:32:52;11.89;90.54
47861;HTU21D;33620;52.340;5.984;2023-11-19T08:35:17;11.89;90.39
47861;HTU21D;33620;52.340;5.984;2023-11-19T08:37:43;11.90;90.37
47861;HTU21D;33620;52.340;5.984;2023-11-19T08:40:08;11.91;90.27
47861;HTU21D;33620;52.340;5.984;2023-11-19T08:42:34;11.88;90.41
47861;HTU21D;33620;52.340;5.984;2023-11-19T08:45:00;11.93;90.36
47861;HTU21D;33620;52.340;5.984;2023-11-19T08:47:25;11.97;90.43
47861;HTU21D;33620;52.340;5.984;2023-11-19T08:49:51;11.94;90.61
47861;HTU21D;33620;52.340;5.984;2023-11-19T08:52:20;11.98;90.46
47861;HTU21D;33620;52.340;5.984;2023-11-19T08:54:45;11.98;90.59
47861;HTU21D;33620;52.340;5.984;2023-11-19T08:57:11;11.98;90.54
47861;HTU21D;33620;52.340;5.984;2023-11-19T08:59:36;11.99;90.42
47861;HTU21D;33620;52.340;5.984;2023-11-19T09:02:05;12.00;90.45
47861;HTU21D;33620;52.340;5.984;2023-11-19T09:04:30;12.03;90.53
47861;HTU21D;33620;52.340;5.984;2023-11-19T09:06:57;12.04;90.56
47861;HTU21D;33620;52.340;5.984;2023-11-19T09:09:23;12.08;90.69
47861;HTU21D;33620;52.340;5.984;2023-11-19T09:11:48;12.08;90.53
47861;HTU21D;33620;52.340;5.984;2023-11-19T09:14:13;12.15;90.67
47861;HTU21D;33620;52.340;5.984;2023-11-19T09:16:39;12.14;90.77
47861;HTU21D;33620;52.340;5.984;2023-11-19T09:19:04;12.12;90.67
47861;HTU21D;33620;52.340;5.984;2023-11-19T09:21:30;12.14;90.59
47861;HTU21D;33620;52.340;5.984;2023-11-19T09:23:55;12.19;90.42
47861;HTU21D;33620;52.340;5.984;2023-11-19T09:26:21;12.22;90.34
47861;HTU21D;33620;52.340;5.984;2023-11-19T09:28:46;12.23;89.74
47861;HTU21D;33620;52.340;5.984;2023-11-19T09:31:15;12.30;89.72
47861;HTU21D;33620;52.340;5.984;2023-11-19T09:33:41;12.33;89.90
47861;HTU21D;33620;52.340;5.984;2023-11-19T09:36:07;12.34;89.39
47861;HTU21D;33620;52.340;5.984;2023-11-19T09:38:32;12.37;89.59
47861;HTU21D;33620;52.340;5.984;2023-11-19T09:40:59;12.34;89.12
47861;HTU21D;33620;52.340;5.984;2023-11-19T09:43:27;12.34;89.24
47861;HTU21D;33620;52.340;5.984;2023-11-19T09:45:54;12.42;89.53
47861;HTU21D;33620;52.340;5.984;2023-11-19T09:48:21;12.42;89.00
47861;HTU21D;33620;52.340;5.984;2023-11-19T09:50:47;12.46;88.80
47861;HTU21D;33620;52.340;5.984;2023-11-19T09:53:13;12.50;88.86
47861;HTU21D;33620;52.340;5.984;2023-11-19T09:55:39;12.51;88.27
47861;HTU21D;33620;52.340;5.984;2023-11-19T09:58:05;12.59;88.39
47861;HTU21D;33620;52.340;5.984;2023-11-19T10:00:32;12.58;87.99
47861;HTU21D;33620;52.340;5.984;2023-11-19T10:02:58;12.59;88.18
47861;HTU21D;33620;52.340;5.984;2023-11-19T10:05:24;12.60;87.96
47861;HTU21D;33620;52.340;5.984;2023-11-19T10:07:50;12.56;87.94
47861;HTU21D;33620;52.340;5.984;2023-11-19T10:10:16;12.59;87.74
47861;HTU21D;33620;52.340;5.984;2023-11-19T10:12:45;12.72;88.06
47861;HTU21D;33620;52.340;5.984;2023-11-19T10:15:19;12.73;87.45
47861;HTU21D;33620;52.340;5.984;2023-11-19T10:17:45;12.82;88.03
47861;HTU21D;33620;52.340;5.984;2023-11-19T10:20:10;12.84;87.26
47861;HTU21D;33620;52.340;5.984;2023-11-19T10:22:38;12.92;87.66
47861;HTU21D;33620;52.340;5.984;2023-11-19T10:25:05;12.85;87.25
47861;HTU21D;33620;52.340;5.984;2023-11-19T10:27:30;12.85;87.19
47861;HTU21D;33620;52.340;5.984;2023-11-19T10:29:59;12.80;86.89
47861;HTU21D;33620;52.340;5.984;2023-11-19T10:32:25;12.77;86.92
47861;HTU21D;33620;52.340;5.984;2023-11-19T10:34:50;12.82;87.38
47861;HTU21D;33620;52.340;5.984;2023-11-19T10:37:28;12.87;87.64
47861;HTU21D;33620;52.340;5.984;2023-11-19T10:39:57;12.86;87.50
47861;HTU21D;33620;52.340;5.984;2023-11-19T10:42:23;12.87;87.59
47861;HTU21D;33620;52.340;5.984;2023-11-19T10:44:48;12.84;87.35
47861;HTU21D;33620;52.340;5.984;2023-11-19T10:47:15;12.84;87.41
47861;HTU21D;33620;52.340;5.984;2023-11-19T10:49:43;12.79;87.13
47861;HTU21D;33620;52.340;5.984;2023-11-19T10:52:11;12.81;87.80
47861;HTU21D;33620;52.340;5.984;2023-11-19T10:54:40;12.77;87.55
47861;HTU21D;33620;52.340;5.984;2023-11-19T10:57:09;12.78;87.42
47861;HTU21D;33620;52.340;5.984;2023-11-19T10:59:37;12.85;87.73
47861;HTU21D;33620;52.340;5.984;2023-11-19T11:02:06;12.91;87.99
47861;HTU21D;33620;52.340;5.984;2023-11-19T11:04:39;12.89;87.39
47861;HTU21D;33620;52.340;5.984;2023-11-19T11:07:05;12.88;86.86
47861;HTU21D;33620;52.340;5.984;2023-11-19T11:09:31;12.92;86.99
47861;HTU21D;33620;52.340;5.984;2023-11-19T11:11:58;12.95;86.95
47861;HTU21D;33620;52.340;5.984;2023-11-19T11:14:24;12.97;86.36
47861;HTU21D;33620;52.340;5.984;2023-11-19T11:16:51;13.02;86.48
47861;HTU21D;33620;52.340;5.984;2023-11-19T11:19:18;13.05;86.62
47861;HTU21D;33620;52.340;5.984;2023-11-19T11:21:47;13.07;86.12
47861;HTU21D;33620;52.340;5.984;2023-11-19T11:36:11;12.91;86.89
47861;HTU21D;33620;52.340;5.984;2023-11-19T11:38:40;12.86;86.87
47861;HTU21D;33620;52.340;5.984;2023-11-19T11:41:20;12.84;86.92
47861;HTU21D;33620;52.340;5.984;2023-11-19T11:49:08;12.81;86.57
47861;HTU21D;33620;52.340;5.984;2023-11-19T11:59:46;12.93;86.62
47861;HTU21D;33620;52.340;5.984;2023-11-19T12:02:17;12.97;86.71
47861;HTU21D;33620;52.340;5.984;2023-11-19T12:04:47;13.00;86.44
47861;HTU21D;33620;52.340;5.984;2023-11-19T12:07:15;13.03;86.43
47861;HTU21D;33620;52.340;5.984;2023-11-19T12:09:41;13.05;85.93
47861;HTU21D;33620;52.340;5.984;2023-11-19T12:12:21;13.14;86.16
47861;HTU21D;33620;52.340;5.984;2023-11-19T12:20:05;13.24;84.54
47861;HTU21D;33620;52.340;5.984;2023-11-19T12:22:35;13.32;84.07
47861;HTU21D;33620;52.340;5.984;2023-11-19T12:25:02;13.30;82.37
47861;HTU21D;33620;52.340;5.984;2023-11-19T12:27:29;13.37;82.40
47861;HTU21D;33620;52.340;5.984;2023-11-19T12:29:54;13.36;81.71
47861;HTU21D;33620;52.340;5.984;2023-11-19T12:32:22;13.35;80.72
47861;HTU21D;33620;52.340;5.984;2023-11-19T12:34:47;13.40;81.49
47861;HTU21D;33620;52.340;5.984;2023-11-19T12:37:13;13.36;81.52
47861;HTU21D;33620;52.340;5.984;2023-11-19T12:39:39;13.38;81.93
47861;HTU21D;33620;52.340;5.984;2023-11-19T12:42:05;13.34;81.42
47861;HTU21D;33620;52.340;5.984;2023-11-19T12:44:30;13.37;81.30
47861;HTU21D;33620;52.340;5.984;2023-11-19T12:47:14;13.35;81.40
47861;HTU21D;33620;52.340;5.984;2023-11-19T12:49:40;13.37;81.25
47861;HTU21D;33620;52.340;5.984;2023-11-19T12:52:12;13.39;81.70
47861;HTU21D;33620;52.340;5.984;2023-11-19T12:54:38;13.43;83.06
47861;HTU21D;33620;52.340;5.984;2023-11-19T12:57:04;13.38;83.13
47861;HTU21D;33620;52.340;5.984;2023-11-19T12:59:30;13.24;86.16
47861;HTU21D;33620;52.340;5.984;2023-11-19T13:01:57;13.21;87.33
47861;HTU21D;33620;52.340;5.984;2023-11-19T13:04:27;13.10;88.06
47861;HTU21D;33620;52.340;5.984;2023-11-19T13:06:52;13.06;88.41
47861;HTU21D;33620;52.340;5.984;2023-11-19T13:09:24;12.96;88.17
47861;HTU21D;33620;52.340;5.984;2023-11-19T13:11:50;12.93;88.17
47861;HTU21D;33620;52.340;5.984;2023-11-19T13:14:16;12.91;88.64
47861;HTU21D;33620;52.340;5.984;2023-11-19T13:16:42;12.93;89.35
47861;HTU21D;33620;52.340;5.984;2023-11-19T13:19:08;12.86;89.74
47861;HTU21D;33620;52.340;5.984;2023-11-19T13:21:36;12.80;90.01
47861;HTU21D;33620;52.340;5.984;2023-11-19T13:24:03;12.79;90.47
47861;HTU21D;33620;52.340;5.984;2023-11-19T13:26:28;12.76;90.89
47861;HTU21D;33620;52.340;5.984;2023-11-19T13:28:54;12.72;90.98
47861;HTU21D;33620;52.340;5.984;2023-11-19T13:31:19;12.70;91.55
47861;HTU21D;33620;52.340;5.984;2023-11-19T13:33:44;12.64;91.71
47861;HTU21D;33620;52.340;5.984;2023-11-19T13:36:10;12.65;91.96
47861;HTU21D;33620;52.340;5.984;2023-11-19T13:38:36;12.63;92.11
47861;HTU21D;33620;52.340;5.984;2023-11-19T13:41:04;12.66;92.27
47861;HTU21D;33620;52.340;5.984;2023-11-19T13:43:30;12.63;91.91
47861;HTU21D;33620;52.340;5.984;2023-11-19T13:45:56;12.63;92.09
47861;HTU21D;33620;52.340;5.984;2023-11-19T13:48:22;12.65;91.99
47861;HTU21D;33620;52.340;5.984;2023-11-19T13:50:47;12.65;92.03
47861;HTU21D;33620;52.340;5.984;2023-11-19T13:53:13;12.65;92.19
47861;HTU21D;33620;52.340;5.984;2023-11-19T13:55:38;12.60;91.44
47861;HTU21D;33620;52.340;5.984;2023-11-19T13:58:04;12.57;90.30
47861;HTU21D;33620;52.340;5.984;2023-11-19T14:00:29;12.60;90.23
47861;HTU21D;33620;52.340;5.984;2023-11-19T14:02:54;12.58;90.41
47861;HTU21D;33620;52.340;5.984;2023-11-19T14:05:20;12.48;89.73
47861;HTU21D;33620;52.340;5.984;2023-11-19T14:07:45;12.48;89.71
47861;HTU21D;33620;52.340;5.984;2023-11-19T14:10:14;12.41;89.89
47861;HTU21D;33620;52.340;5.984;2023-11-19T14:12:40;12.40;90.34
47861;HTU21D;33620;52.340;5.984;2023-11-19T14:15:07;12.36;90.25
47861;HTU21D;33620;52.340;5.984;2023-11-19T14:17:34;12.35;90.53
47861;HTU21D;33620;52.340;5.984;2023-11-19T14:20:00;12.32;90.56
47861;HTU21D;33620;52.340;5.984;2023-11-19T14:22:25;12.34;90.86
47861;HTU21D;33620;52.340;5.984;2023-11-19T14:24:51;12.31;91.12
47861;HTU21D;33620;52.340;5.984;2023-11-19T14:27:16;12.27;90.98
47861;HTU21D;33620;52.340;5.984;2023-11-19T14:29:44;12.30;91.07
47861;HTU21D;33620;52.340;5.984;2023-11-19T14:32:10;12.25;90.68
47861;HTU21D;33620;52.340;5.984;2023-11-19T14:34:36;12.31;90.83
47861;HTU21D;33620;52.340;5.984;2023-11-19T14:37:01;12.29;90.87
47861;HTU21D;33620;52.340;5.984;2023-11-19T14:39:26;12.30;90.96
47861;HTU21D;33620;52.340;5.984;2023-11-19T14:41:52;12.29;91.08
47861;HTU21D;33620;52.340;5.984;2023-11-19T14:44:19;12.26;90.98
47861;HTU21D;33620;52.340;5.984;2023-11-19T14:46:45;12.26;91.15
47861;HTU21D;33620;52.340;5.984;2023-11-19T14:49:11;12.25;90.69
47861;HTU21D;33620;52.340;5.984;2023-11-19T14:51:39;12.27;90.89
47861;HTU21D;33620;52.340;5.984;2023-11-19T14:54:05;12.28;91.05
47861;HTU21D;33620;52.340;5.984;2023-11-19T14:56:30;12.29;91.10
47861;HTU21D;33620;52.340;5.984;2023-11-19T14:58:56;12.28;91.74
47861;HTU21D;33620;52.340;5.984;2023-11-19T15:01:21;12.28;91.87
47861;HTU21D;33620;52.340;5.984;2023-11-19T15:03:47;12.30;92.15
47861;HTU21D;33620;52.340;5.984;2023-11-19T15:06:12;12.32;92.35
47861;HTU21D;33620;52.340;5.984;2023-11-19T15:08:37;12.32;92.52
47861;HTU21D;33620;52.340;5.984;2023-11-19T15:11:03;12.35;92.74
47861;HTU21D;33620;52.340;5.984;2023-11-19T15:13:30;12.34;92.82
47861;HTU21D;33620;52.340;5.984;2023-11-19T15:15:57;12.34;92.94
47861;HTU21D;33620;52.340;5.984;2023-11-19T15:18:22;12.35;93.03
47861;HTU21D;33620;52.340;5.984;2023-11-19T15:20:48;12.32;93.14
47861;HTU21D;33620;52.340;5.984;2023-11-19T15:23:14;12.34;93.23
47861;HTU21D;33620;52.340;5.984;2023-11-19T15:25:40;12.35;93.14
47861;HTU21D;33620;52.340;5.984;2023-11-19T15:28:06;12.35;93.19
47861;HTU21D;33620;52.340;5.984;2023-11-19T15:30:31;12.34;92.93
47861;HTU21D;33620;52.340;5.984;2023-11-19T15:32:56;12.30;92.66
47861;HTU21D;33620;52.340;5.984;2023-11-19T15:35:22;12.31;92.72
47861;HTU21D;33620;52.340;5.984;2023-11-19T15:37:47;12.31;92.79
47861;HTU21D;33620;52.340;5.984;2023-11-19T15:40:13;12.29;92.82